sensor_id;sensor_type;location;lat;lon;timestamp;pressure;altitude;pressure_sealevel;temperature;humidity
84043;BME280;74129;52.540;13.416;2024-01-30T00:00:09;102239.40;;;5.86;52.45
84043;BME280;74129;52.540;13.416;2024-01-30T00:02:58;102237.58;;;5.85;52.46
84043;BME280;74129;52.540;13.416;2024-01-30T00:05:36;102236.84;;;5.82;52.48
84043;BME280;74129;52.540;13.416;2024-01-30T00:08:09;102236.55;;;5.79;52.38
84043;BME280;74129;52.540;13.416;2024-01-30T00:10:47;102236.73;;;5.76;52.50
84043;BME280;74129;52.540;13.416;2024-01-30T00:13:16;102237.69;;;5.74;52.61
84043;BME280;74129;52.540;13.416;2024-01-30T00:15:48;102237.73;;;5.71;52.74
84043;BME280;74129;52.540;13.416;2024-01-30T00:18:20;102238.82;;;5.75;52.81
84043;BME280;74129;52.540;13.416;2024-01-30T00:21:06;102242.02;;;5.77;52.62
84043;BME280;74129;52.540;13.416;2024-01-30T00:23:47;102245.93;;;5.78;52.47
84043;BME280;74129;52.540;13.416;2024-01-30T00:26:17;102247.03;;;5.78;52.58
84043;BME280;74129;52.540;13.416;2024-01-30T00:29:06;102242.63;;;5.77;52.63
84043;BME280;74129;52.540;13.416;2024-01-30T00:31:38;102241.46;;;5.76;52.75
84043;BME280;74129;52.540;13.416;2024-01-30T00:34:07;102243.60;;;5.78;52.48
84043;BME280;74129;52.540;13.416;2024-01-30T00:36:34;102242.77;;;5.78;52.76
84043;BME280;74129;52.540;13.416;2024-01-30T00:39:03;102241.42;;;5.77;52.83
84043;BME280;74129;52.540;13.416;2024-01-30T00:41:44;102238.61;;;5.72;52.79
84043;BME280;74129;52.540;13.416;2024-01-30T00:44:18;102236.92;;;5.67;52.93
84043;BME280;74129;52.540;13.416;2024-01-30T00:47:00;102235.38;;;5.65;52.91
84043;BME280;74129;52.540;13.416;2024-01-30T00:49:49;102235.48;;;5.64;52.97
84043;BME280;74129;52.540;13.416;2024-01-30T00:52:24;102234.21;;;5.64;53.10
84043;BME280;74129;52.540;13.416;2024-01-30T00:55:01;102236.73;;;5.64;53.17
84043;BME280;74129;52.540;13.416;2024-01-30T00:57:41;102236.80;;;5.65;53.27
84043;BME280;74129;52.540;13.416;2024-01-30T01:00:08;102236.19;;;5.67;53.09
84043;BME280;74129;52.540;13.416;2024-01-30T01:02:38;102238.52;;;5.69;52.96
84043;BME280;74129;52.540;13.416;2024-01-30T01:05:07;102236.64;;;5.72;53.04
84043;BME280;74129;52.540;13.416;2024-01-30T01:07:34;102236.30;;;5.72;53.04
84043;BME280;74129;52.540;13.416;2024-01-30T01:10:10;102235.89;;;5.69;52.93
84043;BME280;74129;52.540;13.416;2024-01-30T01:12:52;102234.84;;;5.70;52.88
84043;BME280;74129;52.540;13.416;2024-01-30T01:15:21;102238.73;;;5.69;53.06
84043;BME280;74129;52.540;13.416;2024-01-30T01:20:35;102235.08;;;5.67;53.10
84043;BME280;74129;52.540;13.416;2024-01-30T01:23:05;102234.60;;;5.65;53.06
84043;BME280;74129;52.540;13.416;2024-01-30T01:25:40;102235.57;;;5.69;53.34
84043;BME280;74129;52.540;13.416;2024-01-30T01:28:18;102235.13;;;5.73;53.30
84043;BME280;74129;52.540;13.416;2024-01-30T01:30:45;102235.88;;;5.68;53.29
84043;BME280;74129;52.540;13.416;2024-01-30T01:33:35;102239.41;;;5.68;53.19
84043;BME280;74129;52.540;13.416;2024-01-30T01:36:17;102237.20;;;5.67;53.32
84043;BME280;74129;52.540;13.416;2024-01-30T01:39:17;102233.14;;;5.68;53.19
84043;BME280;74129;52.540;13.416;2024-01-30T01:41:48;102226.88;;;5.70;53.36
84043;BME280;74129;52.540;13.416;2024-01-30T01:44:15;102227.60;;;5.72;53.24
84043;BME280;74129;52.540;13.416;2024-01-30T01:46:41;102228.09;;;5.74;53.19
84043;BME280;74129;52.540;13.416;2024-01-30T01:49:11;102230.75;;;5.74;53.25
84043;BME280;74129;52.540;13.416;2024-01-30T01:51:41;102235.27;;;5.71;53.56
84043;BME280;74129;52.540;13.416;2024-01-30T01:54:12;102231.17;;;5.67;53.61
84043;BME280;74129;52.540;13.416;2024-01-30T01:56:44;102225.60;;;5.65;53.42
84043;BME280;74129;52.540;13.416;2024-01-30T01:59:10;102225.30;;;5.61;53.44
84043;BME280;74129;52.540;13.416;2024-01-30T02:01:37;102223.83;;;5.54;53.48
84043;BME280;74129;52.540;13.416;2024-01-30T02:04:04;102225.31;;;5.49;53.54
84043;BME280;74129;52.540;13.416;2024-01-30T02:06:31;102227.82;;;5.44;53.65
84043;BME280;74129;52.540;13.416;2024-01-30T02:08:58;102226.41;;;5.43;53.95
84043;BME280;74129;52.540;13.416;2024-01-30T02:11:28;102226.83;;;5.47;54.06
84043;BME280;74129;52.540;13.416;2024-01-30T02:13:54;102228.69;;;5.52;54.00
84043;BME280;74129;52.540;13.416;2024-01-30T02:16:21;102229.83;;;5.54;53.89
84043;BME280;74129;52.540;13.416;2024-01-30T02:18:48;102231.36;;;5.55;53.75
84043;BME280;74129;52.540;13.416;2024-01-30T02:21:16;102236.64;;;5.54;53.71
84043;BME280;74129;52.540;13.416;2024-01-30T02:23:49;102233.16;;;5.49;53.99
84043;BME280;74129;52.540;13.416;2024-01-30T02:26:20;102230.63;;;5.46;53.76
84043;BME280;74129;52.540;13.416;2024-01-30T02:28:46;102231.11;;;5.42;53.95
84043;BME280;74129;52.540;13.416;2024-01-30T02:31:13;102227.65;;;5.41;54.28
84043;BME280;74129;52.540;13.416;2024-01-30T02:33:39;102224.74;;;5.42;54.28
84043;BME280;74129;52.540;13.416;2024-01-30T02:36:06;102222.89;;;5.41;54.26
84043;BME280;74129;52.540;13.416;2024-01-30T02:38:38;102223.41;;;5.38;54.15
84043;BME280;74129;52.540;13.416;2024-01-30T02:41:04;102221.67;;;5.39;54.05
84043;BME280;74129;52.540;13.416;2024-01-30T02:43:31;102223.52;;;5.39;54.22
84043;BME280;74129;52.540;13.416;2024-01-30T02:46:00;102228.05;;;5.35;54.33
84043;BME280;74129;52.540;13.416;2024-01-30T02:48:27;102223.59;;;5.26;54.21
84043;BME280;74129;52.540;13.416;2024-01-30T02:50:53;102214.53;;;5.24;54.23
84043;BME280;74129;52.540;13.416;2024-01-30T02:53:25;102217.61;;;5.27;54.51
84043;BME280;74129;52.540;13.416;2024-01-30T02:56:00;102217.77;;;5.21;54.50
84043;BME280;74129;52.540;13.416;2024-01-30T02:58:29;102217.73;;;5.12;54.45
84043;BME280;74129;52.540;13.416;2024-01-30T03:00:56;102213.78;;;5.11;54.93
84043;BME280;74129;52.540;13.416;2024-01-30T03:03:37;102212.76;;;5.09;54.64
84043;BME280;74129;52.540;13.416;2024-01-30T03:06:04;102213.06;;;5.08;54.86
84043;BME280;74129;52.540;13.416;2024-01-30T03:08:34;102214.44;;;5.07;54.67
84043;BME280;74129;52.540;13.416;2024-01-30T03:11:04;102206.73;;;5.03;54.84
84043;BME280;74129;52.540;13.416;2024-01-30T03:13:38;102203.30;;;5.01;55.14
84043;BME280;74129;52.540;13.416;2024-01-30T03:16:08;102201.30;;;5.03;54.97
84043;BME280;74129;52.540;13.416;2024-01-30T03:18:38;102199.43;;;5.03;55.03
84043;BME280;74129;52.540;13.416;2024-01-30T03:21:04;102196.52;;;5.00;55.03
84043;BME280;74129;52.540;13.416;2024-01-30T03:23:36;102199.02;;;5.00;55.26
84043;BME280;74129;52.540;13.416;2024-01-30T03:28:45;102197.26;;;5.03;55.25
84043;BME280;74129;52.540;13.416;2024-01-30T03:31:16;102198.20;;;5.05;55.29
84043;BME280;74129;52.540;13.416;2024-01-30T03:33:56;102201.30;;;5.03;55.30
84043;BME280;74129;52.540;13.416;2024-01-30T03:36:26;102201.15;;;5.05;55.28
84043;BME280;74129;52.540;13.416;2024-01-30T03:38:53;102198.73;;;5.06;55.26
84043;BME280;74129;52.540;13.416;2024-01-30T03:41:24;102196.73;;;5.08;55.49
84043;BME280;74129;52.540;13.416;2024-01-30T03:43:51;102195.34;;;5.06;55.29
84043;BME280;74129;52.540;13.416;2024-01-30T03:46:28;102193.30;;;5.06;55.65
84043;BME280;74129;52.540;13.416;2024-01-30T03:48:54;102190.64;;;5.05;55.63
84043;BME280;74129;52.540;13.416;2024-01-30T03:51:21;102194.20;;;5.00;55.59
84043;BME280;74129;52.540;13.416;2024-01-30T03:53:50;102195.23;;;5.02;55.62
84043;BME280;74129;52.540;13.416;2024-01-30T03:56:20;102193.35;;;5.05;55.57
84043;BME280;74129;52.540;13.416;2024-01-30T03:59:01;102194.33;;;5.08;55.51
84043;BME280;74129;52.540;13.416;2024-01-30T04:01:49;102194.73;;;5.10;55.54
84043;BME280;74129;52.540;13.416;2024-01-30T04:04:21;102189.48;;;5.07;55.54
84043;BME280;74129;52.540;13.416;2024-01-30T04:06:48;102190.60;;;5.07;55.59
84043;BME280;74129;52.540;13.416;2024-01-30T04:09:16;102187.96;;;5.08;55.88
84043;BME280;74129;52.540;13.416;2024-01-30T04:11:48;102189.30;;;5.10;55.51
84043;BME280;74129;52.540;13.416;2024-01-30T04:14:26;102190.52;;;5.09;55.96
84043;BME280;74129;52.540;13.416;2024-01-30T04:17:07;102195.50;;;5.07;55.99
84043;BME280;74129;52.540;13.416;2024-01-30T04:19:42;102196.30;;;5.07;56.04
84043;BME280;74129;52.540;13.416;2024-01-30T04:22:22;102198.64;;;5.09;55.89
84043;BME280;74129;52.540;13.416;2024-01-30T04:25:00;102201.02;;;5.09;55.87
84043;BME280;74129;52.540;13.416;2024-01-30T04:27:27;102200.44;;;5.06;55.67
84043;BME280;74129;52.540;13.416;2024-01-30T04:30:08;102199.54;;;4.97;56.01
84043;BME280;74129;52.540;13.416;2024-01-30T04:32:45;102196.31;;;4.88;55.95
84043;BME280;74129;52.540;13.416;2024-01-30T04:36:03;102196.86;;;4.85;55.95
84043;BME280;74129;52.540;13.416;2024-01-30T04:38:42;102191.51;;;4.79;56.20
84043;BME280;74129;52.540;13.416;2024-01-30T04:41:12;102189.51;;;4.75;56.20
84043;BME280;74129;52.540;13.416;2024-01-30T04:43:39;102188.54;;;4.74;56.47
84043;BME280;74129;52.540;13.416;2024-01-30T04:46:21;102186.15;;;4.73;56.69
84043;BME280;74129;52.540;13.416;2024-01-30T04:48:50;102182.64;;;4.76;56.42
84043;BME280;74129;52.540;13.416;2024-01-30T04:51:24;102180.70;;;4.78;56.48
84043;BME280;74129;52.540;13.416;2024-01-30T04:54:03;102183.89;;;4.82;56.56
84043;BME280;74129;52.540;13.416;2024-01-30T04:56:35;102183.59;;;4.81;56.52
84043;BME280;74129;52.540;13.416;2024-01-30T04:59:04;102182.95;;;4.84;56.54
84043;BME280;74129;52.540;13.416;2024-01-30T05:01:38;102180.48;;;4.88;56.68
84043;BME280;74129;52.540;13.416;2024-01-30T05:04:07;102180.61;;;4.91;56.62
84043;BME280;74129;52.540;13.416;2024-01-30T05:06:42;102180.02;;;4.90;56.68
84043;BME280;74129;52.540;13.416;2024-01-30T05:09:18;102180.17;;;4.88;56.60
84043;BME280;74129;52.540;13.416;2024-01-30T05:11:48;102182.83;;;4.89;56.57
84043;BME280;74129;52.540;13.416;2024-01-30T05:14:26;102180.90;;;4.89;56.51
84043;BME280;74129;52.540;13.416;2024-01-30T05:16:59;102182.02;;;4.90;56.65
84043;BME280;74129;52.540;13.416;2024-01-30T05:19:36;102182.73;;;4.93;56.65
84043;BME280;74129;52.540;13.416;2024-01-30T05:22:08;102184.54;;;4.90;56.83
84043;BME280;74129;52.540;13.416;2024-01-30T05:24:36;102182.50;;;4.85;56.58
84043;BME280;74129;52.540;13.416;2024-01-30T05:27:02;102183.34;;;4.83;56.53
84043;BME280;74129;52.540;13.416;2024-01-30T05:29:34;102185.06;;;4.81;56.72
84043;BME280;74129;52.540;13.416;2024-01-30T05:32:04;102182.25;;;4.77;56.61
84043;BME280;74129;52.540;13.416;2024-01-30T05:34:45;102180.99;;;4.76;56.97
84043;BME280;74129;52.540;13.416;2024-01-30T05:37:19;102177.72;;;4.74;56.78
84043;BME280;74129;52.540;13.416;2024-01-30T05:43:06;102178.19;;;4.71;57.17
84043;BME280;74129;52.540;13.416;2024-01-30T05:45:34;102175.77;;;4.72;57.19
84043;BME280;74129;52.540;13.416;2024-01-30T05:48:07;102176.13;;;4.78;57.24
84043;BME280;74129;52.540;13.416;2024-01-30T05:50:42;102170.94;;;4.83;57.13
84043;BME280;74129;52.540;13.416;2024-01-30T05:53:18;102175.05;;;4.83;56.77
84043;BME280;74129;52.540;13.416;2024-01-30T05:55:47;102175.96;;;4.76;56.86
84043;BME280;74129;52.540;13.416;2024-01-30T05:58:28;102172.71;;;4.74;56.89
84043;BME280;74129;52.540;13.416;2024-01-30T06:01:14;102173.13;;;4.75;57.11
84043;BME280;74129;52.540;13.416;2024-01-30T06:03:58;102168.82;;;4.78;57.27
84043;BME280;74129;52.540;13.416;2024-01-30T06:06:52;102171.33;;;4.76;57.15
84043;BME280;74129;52.540;13.416;2024-01-30T06:09:23;102172.08;;;4.73;57.09
84043;BME280;74129;52.540;13.416;2024-01-30T06:11:53;102167.88;;;4.74;56.91
84043;BME280;74129;52.540;13.416;2024-01-30T06:14:25;102167.70;;;4.75;57.04
84043;BME280;74129;52.540;13.416;2024-01-30T06:16:54;102168.23;;;4.72;57.13
84043;BME280;74129;52.540;13.416;2024-01-30T06:19:47;102171.36;;;4.72;57.44
84043;BME280;74129;52.540;13.416;2024-01-30T06:22:28;102171.66;;;4.72;57.18
84043;BME280;74129;52.540;13.416;2024-01-30T06:25:21;102170.21;;;4.74;57.15
84043;BME280;74129;52.540;13.416;2024-01-30T06:31:16;102169.52;;;4.77;57.30
84043;BME280;74129;52.540;13.416;2024-01-30T06:33:59;102164.39;;;4.78;57.04
84043;BME280;74129;52.540;13.416;2024-01-30T06:36:40;102162.17;;;4.76;56.98
84043;BME280;74129;52.540;13.416;2024-01-30T06:39:15;102165.59;;;4.77;57.36
84043;BME280;74129;52.540;13.416;2024-01-30T06:42:03;102166.74;;;4.76;57.28
84043;BME280;74129;52.540;13.416;2024-01-30T06:44:59;102164.32;;;4.74;57.29
84043;BME280;74129;52.540;13.416;2024-01-30T06:47:39;102170.68;;;4.74;57.43
84043;BME280;74129;52.540;13.416;2024-01-30T06:50:22;102168.67;;;4.78;57.20
84043;BME280;74129;52.540;13.416;2024-01-30T06:53:20;102167.34;;;4.85;57.37
84043;BME280;74129;52.540;13.416;2024-01-30T06:55:54;102167.70;;;4.92;57.76
84043;BME280;74129;52.540;13.416;2024-01-30T06:58:24;102167.50;;;5.02;57.80
84043;BME280;74129;52.540;13.416;2024-01-30T07:00:51;102164.34;;;5.06;57.38
84043;BME280;74129;52.540;13.416;2024-01-30T07:03:18;102165.13;;;5.10;57.28
84043;BME280;74129;52.540;13.416;2024-01-30T07:05:56;102166.23;;;5.10;57.21
84043;BME280;74129;52.540;13.416;2024-01-30T07:08:28;102168.52;;;5.11;56.91
84043;BME280;74129;52.540;13.416;2024-01-30T07:11:00;102166.00;;;5.13;56.85
84043;BME280;74129;52.540;13.416;2024-01-30T07:13:27;102166.95;;;5.16;56.86
84043;BME280;74129;52.540;13.416;2024-01-30T07:15:56;102171.76;;;5.15;56.92
84043;BME280;74129;52.540;13.416;2024-01-30T07:18:25;102173.63;;;5.15;57.19
84043;BME280;74129;52.540;13.416;2024-01-30T07:20:55;102174.38;;;5.13;57.22
84043;BME280;74129;52.540;13.416;2024-01-30T07:23:24;102173.58;;;5.09;57.26
84043;BME280;74129;52.540;13.416;2024-01-30T07:26:09;102169.37;;;5.10;57.12
84043;BME280;74129;52.540;13.416;2024-01-30T07:28:44;102165.54;;;5.14;57.09
84043;BME280;74129;52.540;13.416;2024-01-30T07:31:16;102165.44;;;5.21;56.84
84043;BME280;74129;52.540;13.416;2024-01-30T07:33:51;102160.35;;;5.26;56.94
84043;BME280;74129;52.540;13.416;2024-01-30T07:36:20;102163.04;;;5.28;56.94
84043;BME280;74129;52.540;13.416;2024-01-30T07:38:47;102161.54;;;5.29;56.96
84043;BME280;74129;52.540;13.416;2024-01-30T07:41:47;102156.09;;;5.30;57.22
84043;BME280;74129;52.540;13.416;2024-01-30T07:44:18;102149.29;;;5.33;56.95
84043;BME280;74129;52.540;13.416;2024-01-30T07:46:52;102149.77;;;5.38;56.78
84043;BME280;74129;52.540;13.416;2024-01-30T07:49:24;102152.83;;;5.42;56.67
84043;BME280;74129;52.540;13.416;2024-01-30T07:51:57;102151.14;;;5.44;56.49
84043;BME280;74129;52.540;13.416;2024-01-30T07:54:29;102154.80;;;5.51;56.79
84043;BME280;74129;52.540;13.416;2024-01-30T07:57:18;102151.94;;;5.54;56.60
84043;BME280;74129;52.540;13.416;2024-01-30T07:59:45;102153.23;;;5.52;56.54
84043;BME280;74129;52.540;13.416;2024-01-30T08:02:32;102157.92;;;5.53;56.52
84043;BME280;74129;52.540;13.416;2024-01-30T08:05:04;102151.01;;;5.58;56.38
84043;BME280;74129;52.540;13.416;2024-01-30T08:07:37;102153.97;;;5.61;56.35
84043;BME280;74129;52.540;13.416;2024-01-30T08:10:04;102152.66;;;5.64;56.24
84043;BME280;74129;52.540;13.416;2024-01-30T08:12:31;102154.85;;;5.65;56.34
84043;BME280;74129;52.540;13.416;2024-01-30T08:15:05;102152.04;;;5.70;56.33
84043;BME280;74129;52.540;13.416;2024-01-30T08:17:49;102152.06;;;5.75;56.40
84043;BME280;74129;52.540;13.416;2024-01-30T08:20:29;102153.27;;;5.76;56.04
84043;BME280;74129;52.540;13.416;2024-01-30T08:23:26;102151.27;;;5.76;55.98
84043;BME280;74129;52.540;13.416;2024-01-30T08:26:08;102150.15;;;5.83;55.92
84043;BME280;74129;52.540;13.416;2024-01-30T08:28:43;102146.47;;;5.86;55.65
84043;BME280;74129;52.540;13.416;2024-01-30T08:31:22;102147.27;;;5.90;55.58
84043;BME280;74129;52.540;13.416;2024-01-30T08:34:00;102139.85;;;5.92;55.60
84043;BME280;74129;52.540;13.416;2024-01-30T08:36:38;102141.77;;;5.96;55.41
84043;BME280;74129;52.540;13.416;2024-01-30T08:39:11;102139.41;;;6.01;55.37
84043;BME280;74129;52.540;13.416;2024-01-30T08:41:59;102139.61;;;6.04;55.46
84043;BME280;74129;52.540;13.416;2024-01-30T08:44:29;102137.17;;;6.09;55.31
84043;BME280;74129;52.540;13.416;2024-01-30T08:46:56;102141.84;;;6.15;55.33
84043;BME280;74129;52.540;13.416;2024-01-30T08:49:23;102137.06;;;6.22;55.30
84043;BME280;74129;52.540;13.416;2024-01-30T08:51:49;102133.55;;;6.26;55.08
84043;BME280;74129;52.540;13.416;2024-01-30T08:54:27;102132.02;;;6.34;55.06
84043;BME280;74129;52.540;13.416;2024-01-30T08:57:15;102134.83;;;6.43;54.80
84043;BME280;74129;52.540;13.416;2024-01-30T08:59:44;102132.11;;;6.53;54.80
84043;BME280;74129;52.540;13.416;2024-01-30T09:02:14;102134.33;;;6.67;54.42
84043;BME280;74129;52.540;13.416;2024-01-30T09:04:50;102136.50;;;6.78;54.10
84043;BME280;74129;52.540;13.416;2024-01-30T09:07:20;102131.02;;;6.86;53.77
84043;BME280;74129;52.540;13.416;2024-01-30T09:09:50;102127.71;;;6.91;53.99
84043;BME280;74129;52.540;13.416;2024-01-30T09:12:20;102126.13;;;6.97;53.53
84043;BME280;74129;52.540;13.416;2024-01-30T09:14:49;102126.70;;;6.97;52.97
84043;BME280;74129;52.540;13.416;2024-01-30T09:17:19;102129.80;;;6.89;52.90
84043;BME280;74129;52.540;13.416;2024-01-30T09:20:07;102132.44;;;6.85;52.95
84043;BME280;74129;52.540;13.416;2024-01-30T09:22:37;102137.16;;;6.84;53.07
84043;BME280;74129;52.540;13.416;2024-01-30T09:25:15;102135.91;;;6.87;53.06
84043;BME280;74129;52.540;13.416;2024-01-30T09:27:56;102136.83;;;6.93;52.92
84043;BME280;74129;52.540;13.416;2024-01-30T09:30:33;102138.10;;;6.97;52.70
84043;BME280;74129;52.540;13.416;2024-01-30T09:33:11;102139.18;;;6.98;52.72
84043;BME280;74129;52.540;13.416;2024-01-30T09:35:44;102137.89;;;7.01;52.50
84043;BME280;74129;52.540;13.416;2024-01-30T09:38:18;102137.40;;;7.02;52.49
84043;BME280;74129;52.540;13.416;2024-01-30T09:41:03;102137.48;;;7.12;52.74
84043;BME280;74129;52.540;13.416;2024-01-30T09:43:41;102133.48;;;7.22;52.57
84043;BME280;74129;52.540;13.416;2024-01-30T09:46:40;102132.98;;;7.29;52.30
84043;BME280;74129;52.540;13.416;2024-01-30T09:49:11;102130.58;;;7.37;52.37
84043;BME280;74129;52.540;13.416;2024-01-30T09:51:48;102126.58;;;7.41;52.36
84043;BME280;74129;52.540;13.416;2024-01-30T09:54:17;102123.73;;;7.41;52.00
84043;BME280;74129;52.540;13.416;2024-01-30T09:56:52;102125.05;;;7.42;51.96
84043;BME280;74129;52.540;13.416;2024-01-30T09:59:24;102123.52;;;7.47;51.62
84043;BME280;74129;52.540;13.416;2024-01-30T10:01:53;102124.22;;;7.55;51.40
84043;BME280;74129;52.540;13.416;2024-01-30T10:04:20;102120.02;;;7.62;51.31
84043;BME280;74129;52.540;13.416;2024-01-30T10:06:47;102125.04;;;7.68;51.13
84043;BME280;74129;52.540;13.416;2024-01-30T10:09:24;102117.48;;;7.71;50.98
84043;BME280;74129;52.540;13.416;2024-01-30T10:11:56;102111.75;;;7.73;50.96
84043;BME280;74129;52.540;13.416;2024-01-30T10:14:40;102114.09;;;7.78;50.77
84043;BME280;74129;52.540;13.416;2024-01-30T10:23:02;102106.48;;;7.92;50.20
84043;BME280;74129;52.540;13.416;2024-01-30T10:25:31;102104.77;;;7.98;50.18
84043;BME280;74129;52.540;13.416;2024-01-30T10:28:00;102100.59;;;8.05;49.87
84043;BME280;74129;52.540;13.416;2024-01-30T10:30:56;102100.88;;;8.11;49.69
84043;BME280;74129;52.540;13.416;2024-01-30T10:33:29;102102.23;;;8.18;49.49
84043;BME280;74129;52.540;13.416;2024-01-30T10:36:10;102099.54;;;8.28;49.51
84043;BME280;74129;52.540;13.416;2024-01-30T10:38:43;102098.27;;;8.31;48.98
84043;BME280;74129;52.540;13.416;2024-01-30T10:41:18;102098.35;;;8.29;48.68
84043;BME280;74129;52.540;13.416;2024-01-30T10:43:52;102092.12;;;8.27;48.47
84043;BME280;74129;52.540;13.416;2024-01-30T10:46:37;102093.47;;;8.28;48.39
84043;BME280;74129;52.540;13.416;2024-01-30T10:49:27;102095.55;;;8.31;48.65
84043;BME280;74129;52.540;13.416;2024-01-30T10:51:58;102096.96;;;8.39;48.55
84043;BME280;74129;52.540;13.416;2024-01-30T10:54:25;102098.73;;;8.46;48.37
84043;BME280;74129;52.540;13.416;2024-01-30T10:56:53;102101.52;;;8.52;48.07
84043;BME280;74129;52.540;13.416;2024-01-30T10:59:23;102099.11;;;8.53;48.05
84043;BME280;74129;52.540;13.416;2024-01-30T11:01:54;102098.13;;;8.55;47.78
84043;BME280;74129;52.540;13.416;2024-01-30T11:04:26;102091.05;;;8.55;47.64
84043;BME280;74129;52.540;13.416;2024-01-30T11:07:15;102090.63;;;8.59;47.39
84043;BME280;74129;52.540;13.416;2024-01-30T11:09:59;102093.14;;;8.57;47.46
84043;BME280;74129;52.540;13.416;2024-01-30T11:12:45;102095.46;;;8.63;47.59
84043;BME280;74129;52.540;13.416;2024-01-30T11:15:22;102094.84;;;8.68;47.44
84043;BME280;74129;52.540;13.416;2024-01-30T11:17:53;102088.73;;;8.65;47.32
84043;BME280;74129;52.540;13.416;2024-01-30T11:20:25;102089.28;;;8.70;47.48
84043;BME280;74129;52.540;13.416;2024-01-30T11:23:15;102085.77;;;8.72;47.40
84043;BME280;74129;52.540;13.416;2024-01-30T11:25:46;102080.69;;;8.75;47.76
84043;BME280;74129;52.540;13.416;2024-01-30T11:28:39;102078.05;;;8.79;47.26
84043;BME280;74129;52.540;13.416;2024-01-30T11:31:28;102079.50;;;8.83;47.47
84043;BME280;74129;52.540;13.416;2024-01-30T11:34:06;102074.00;;;8.87;47.18
84043;BME280;74129;52.540;13.416;2024-01-30T11:36:47;102075.27;;;8.93;47.42
84043;BME280;74129;52.540;13.416;2024-01-30T11:39:38;102070.16;;;9.02;47.55
84043;BME280;74129;52.540;13.416;2024-01-30T11:42:29;102071.84;;;9.06;46.94
84043;BME280;74129;52.540;13.416;2024-01-30T11:45:10;102077.29;;;9.08;46.95
84043;BME280;74129;52.540;13.416;2024-01-30T11:47:48;102082.82;;;9.10;47.11
84043;BME280;74129;52.540;13.416;2024-01-30T11:50:49;102074.17;;;9.13;47.26
84043;BME280;74129;52.540;13.416;2024-01-30T11:53:38;102071.97;;;9.21;47.19
84043;BME280;74129;52.540;13.416;2024-01-30T11:56:12;102068.44;;;9.32;47.31
84043;BME280;74129;52.540;13.416;2024-01-30T11:58:45;102066.03;;;9.40;47.21
84043;BME280;74129;52.540;13.416;2024-01-30T12:01:27;102068.74;;;9.44;46.60
84043;BME280;74129;52.540;13.416;2024-01-30T12:03:57;102065.23;;;9.46;46.66
84043;BME280;74129;52.540;13.416;2024-01-30T12:06:23;102062.45;;;9.48;46.50
84043;BME280;74129;52.540;13.416;2024-01-30T12:08:57;102062.08;;;9.48;46.47
84043;BME280;74129;52.540;13.416;2024-01-30T12:11:29;102056.67;;;9.56;46.69
84043;BME280;74129;52.540;13.416;2024-01-30T12:14:09;102055.25;;;9.60;46.22
84043;BME280;74129;52.540;13.416;2024-01-30T12:16:36;102046.21;;;9.68;46.39
84043;BME280;74129;52.540;13.416;2024-01-30T12:19:03;102046.63;;;9.69;46.33
84043;BME280;74129;52.540;13.416;2024-01-30T12:21:30;102046.52;;;9.75;46.70
84043;BME280;74129;52.540;13.416;2024-01-30T12:24:00;102043.73;;;9.80;46.50
84043;BME280;74129;52.540;13.416;2024-01-30T12:26:29;102037.33;;;9.80;46.12
84043;BME280;74129;52.540;13.416;2024-01-30T12:29:03;102030.86;;;9.84;46.60
84043;BME280;74129;52.540;13.416;2024-01-30T12:31:35;102028.48;;;9.92;46.10
84043;BME280;74129;52.540;13.416;2024-01-30T12:34:05;102020.15;;;9.96;46.34
84043;BME280;74129;52.540;13.416;2024-01-30T12:36:42;102021.11;;;10.03;46.31
84043;BME280;74129;52.540;13.416;2024-01-30T12:39:24;102013.55;;;10.14;46.34
84043;BME280;74129;52.540;13.416;2024-01-30T12:41:54;102012.79;;;10.23;46.31
84043;BME280;74129;52.540;13.416;2024-01-30T12:44:26;102008.36;;;10.29;46.19
84043;BME280;74129;52.540;13.416;2024-01-30T12:50:00;102000.80;;;10.27;45.66
84043;BME280;74129;52.540;13.416;2024-01-30T12:52:40;101995.02;;;10.24;45.74
84043;BME280;74129;52.540;13.416;2024-01-30T12:55:10;101988.77;;;10.23;45.74
84043;BME280;74129;52.540;13.416;2024-01-30T12:57:37;101986.66;;;10.21;45.95
84043;BME280;74129;52.540;13.416;2024-01-30T13:00:10;101991.91;;;10.28;46.42
84043;BME280;74129;52.540;13.416;2024-01-30T13:02:44;101995.32;;;10.34;45.77
84043;BME280;74129;52.540;13.416;2024-01-30T13:05:23;101999.73;;;10.33;45.94
84043;BME280;74129;52.540;13.416;2024-01-30T13:07:50;101995.86;;;10.38;46.05
84043;BME280;74129;52.540;13.416;2024-01-30T13:10:25;101996.72;;;10.45;45.81
84043;BME280;74129;52.540;13.416;2024-01-30T13:12:54;101992.95;;;10.42;45.77
84043;BME280;74129;52.540;13.416;2024-01-30T13:15:23;101988.48;;;10.37;45.59
84043;BME280;74129;52.540;13.416;2024-01-30T13:17:50;101989.40;;;10.32;45.97
84043;BME280;74129;52.540;13.416;2024-01-30T13:20:22;101987.75;;;10.29;46.14
84043;BME280;74129;52.540;13.416;2024-01-30T13:22:51;101986.94;;;10.27;46.41
84043;BME280;74129;52.540;13.416;2024-01-30T13:25:18;101982.83;;;10.31;46.65
84043;BME280;74129;52.540;13.416;2024-01-30T13:28:05;101977.16;;;10.34;46.56
84043;BME280;74129;52.540;13.416;2024-01-30T13:30:38;101967.96;;;10.35;46.80
84043;BME280;74129;52.540;13.416;2024-01-30T13:33:15;101967.86;;;10.33;46.78
84043;BME280;74129;52.540;13.416;2024-01-30T13:35:42;101964.79;;;10.33;46.65
84043;BME280;74129;52.540;13.416;2024-01-30T13:38:09;101966.17;;;10.36;46.88
84043;BME280;74129;52.540;13.416;2024-01-30T13:40:36;101966.99;;;10.36;46.65
84043;BME280;74129;52.540;13.416;2024-01-30T13:43:10;101977.48;;;10.33;46.69
84043;BME280;74129;52.540;13.416;2024-01-30T13:45:39;101976.34;;;10.28;46.68
84043;BME280;74129;52.540;13.416;2024-01-30T13:48:08;101977.48;;;10.27;46.91